createdAt,value
2023-01-29T00:00:01.512Z,438.41
2023-01-29T00:05:10.113Z,417.877
2023-01-29T00:10:01.367Z,2071.223
2023-01-29T00:15:01.413Z,2527.179
2023-01-29T00:20:05.118Z,2551.137
2023-01-29T00:25:01.337Z,2589.895
2023-01-29T00:30:01.340Z,3039.971
2023-01-29T00:35:01.344Z,1483.729
2023-01-29T00:40:01.327Z,536.082
2023-01-29T00:45:01.363Z,477.261
2023-01-29T00:50:01.332Z,418.437
2023-01-29T00:55:01.441Z,258.061
2023-01-29T01:00:01.486Z,194.55100000000002
2023-01-29T01:05:01.396Z,3175.282
2023-01-29T01:10:01.540Z,4822.567
2023-01-29T01:15:01.442Z,6949.357
2023-01-29T01:20:04.128Z,7052.034000000001
2023-01-29T01:25:01.404Z,7068.51
2023-01-29T01:30:01.435Z,7253.425
2023-01-29T01:35:01.414Z,6773.328
2023-01-29T01:40:01.396Z,6238.985000000001
2023-01-29T01:45:01.467Z,4833.284
2023-01-29T01:50:01.508Z,4844.16
2023-01-29T01:55:01.431Z,4848.0960000000005
2023-01-29T02:00:01.421Z,4845.059
2023-01-29T02:05:01.423Z,4956.253
2023-01-29T02:10:01.451Z,5036.829
2023-01-29T02:15:01.454Z,7105.521
2023-01-29T02:20:04.422Z,7009.481
2023-01-29T02:25:01.705Z,6989.447
2023-01-29T02:30:01.655Z,6326.703
2023-01-29T02:35:01.604Z,4831.175
2023-01-29T02:40:01.596Z,4842.06
2023-01-29T02:45:01.656Z,4838.62
2023-01-29T02:50:01.447Z,4914.6900000000005
2023-01-29T02:55:01.487Z,4972.122
2023-01-29T03:00:01.535Z,4960.689
2023-01-29T03:05:01.492Z,4879.06
2023-01-29T03:10:01.467Z,4942.673
2023-01-29T03:15:01.443Z,6928.819
2023-01-29T03:20:04.793Z,6924.2390000000005
2023-01-29T03:25:01.569Z,6583.914
2023-01-29T03:30:01.504Z,6241.034000000001
2023-01-29T03:35:01.494Z,5952.671
2023-01-29T03:40:01.513Z,3334.343
2023-01-29T03:45:01.461Z,3046.157
2023-01-29T03:50:02.053Z,337.048
2023-01-29T03:55:01.547Z,195.636
2023-01-29T04:00:01.519Z,195.501
2023-01-29T04:05:01.655Z,195.25
2023-01-29T04:10:01.559Z,201.243
2023-01-29T04:15:01.536Z,2063.339
2023-01-29T04:20:01.565Z,2040.5710000000001
2023-01-29T04:25:01.599Z,2451.545
2023-01-29T04:30:01.564Z,2437.573
2023-01-29T04:35:01.624Z,1681.886
2023-01-29T04:40:01.652Z,195.409
2023-01-29T04:45:01.630Z,195.50300000000001
2023-01-29T04:50:02.270Z,195.252
2023-01-29T04:55:01.719Z,194.201
2023-01-29T05:00:01.730Z,194.092
2023-01-29T05:05:01.763Z,201.433
2023-01-29T05:10:01.832Z,293.599
2023-01-29T05:15:01.581Z,1350.626
2023-01-29T05:20:01.588Z,2415.141
2023-01-29T05:25:01.623Z,2338.448
2023-01-29T05:30:01.640Z,2342.164
2023-01-29T05:35:01.577Z,1120.178
2023-01-29T05:40:01.613Z,190.483
2023-01-29T05:45:01.665Z,194.333
2023-01-29T05:50:02.121Z,246.24
2023-01-29T05:55:01.586Z,322.118
2023-01-29T06:00:01.617Z,369.443
2023-01-29T06:05:01.635Z,362.59000000000003
2023-01-29T06:10:01.634Z,304.76800000000003
2023-01-29T06:15:01.617Z,1342.996
2023-01-29T06:20:01.752Z,2358.175
2023-01-29T06:25:01.685Z,2362.667
2023-01-29T06:30:01.765Z,1990.32
2023-01-29T06:35:01.628Z,2328.611
2023-01-29T06:40:01.618Z,2571.791
2023-01-29T06:45:01.629Z,3031.7200000000003
2023-01-29T06:50:02.094Z,363.64
2023-01-29T06:55:01.792Z,327.52500000000003
2023-01-29T07:00:01.625Z,297.228
2023-01-29T07:05:01.666Z,299.396
2023-01-29T07:10:01.702Z,287.238
2023-01-29T07:15:01.707Z,286.771
2023-01-29T07:20:01.781Z,287.349
2023-01-29T07:25:01.877Z,295.897
2023-01-29T07:30:01.820Z,1563.412
2023-01-29T07:35:01.847Z,2487.873
2023-01-29T07:40:01.831Z,2465.233
2023-01-29T07:45:01.853Z,2357.562
2023-01-29T07:50:02.402Z,1076.778
2023-01-29T07:55:01.863Z,311.933
2023-01-29T08:00:01.861Z,312.967
2023-01-29T08:05:01.970Z,322.774
2023-01-29T08:10:01.701Z,327.105
2023-01-29T08:15:01.747Z,415.325
2023-01-29T08:20:01.802Z,437.66200000000003
2023-01-29T08:25:08.117Z,449.31100000000004
2023-01-29T08:30:01.757Z,316.515
2023-01-29T08:35:01.746Z,1847.5230000000001
2023-01-29T08:40:01.820Z,3477.832
2023-01-29T08:45:01.736Z,2430.791
2023-01-29T08:50:02.456Z,3687.088
2023-01-29T08:55:01.799Z,4693.272
2023-01-29T09:00:01.784Z,4316.567
2023-01-29T09:05:01.725Z,3674.385
2023-01-29T09:10:01.784Z,2589.905
2023-01-29T09:15:01.800Z,1392.561
2023-01-29T09:20:01.878Z,622.763
2023-01-29T09:25:01.805Z,2046.611
2023-01-29T09:30:01.900Z,2535.558
2023-01-29T09:35:01.833Z,2517.402
2023-01-29T09:40:01.834Z,1251.106
2023-01-29T09:45:01.770Z,370.734
2023-01-29T09:50:02.480Z,466.057
2023-01-29T09:55:01.856Z,2149.25
2023-01-29T10:00:01.888Z,2567.579
2023-01-29T10:05:01.871Z,2607.2580000000003
2023-01-29T10:10:01.954Z,4637.915
2023-01-29T10:15:01.871Z,5126.932
2023-01-29T10:20:01.877Z,3867.652
2023-01-29T10:25:01.880Z,2438.0460000000003
2023-01-29T10:30:01.895Z,436.871
2023-01-29T10:35:01.955Z,484.728
2023-01-29T10:40:01.862Z,452.983
2023-01-29T10:45:01.889Z,372.009
2023-01-29T10:50:02.661Z,463.926
2023-01-29T10:55:01.850Z,507.922
2023-01-29T11:00:01.865Z,449.041
2023-01-29T11:05:01.961Z,973.333
2023-01-29T11:10:01.901Z,2499.436
2023-01-29T11:15:01.941Z,2652.061
2023-01-29T11:20:01.960Z,2482.054
2023-01-29T11:25:01.924Z,2567.908
2023-01-29T11:30:02.083Z,5008.8820000000005
2023-01-29T11:35:01.943Z,3734.748
2023-01-29T11:40:01.944Z,2680.2400000000002
2023-01-29T11:45:01.916Z,2547.791
2023-01-29T11:50:02.290Z,863.364
2023-01-29T11:55:01.901Z,880.687
2023-01-29T12:00:01.974Z,910.351
2023-01-29T12:05:01.954Z,931.714
2023-01-29T12:10:01.934Z,1056.214
2023-01-29T12:15:01.963Z,1206.3410000000001
2023-01-29T12:20:01.982Z,1577.9270000000001
2023-01-29T12:25:02.020Z,3147.42
2023-01-29T12:30:02.038Z,3667.467
2023-01-29T12:35:01.996Z,4927.298
2023-01-29T12:40:02.047Z,3566.291
2023-01-29T12:45:01.979Z,3250.26
2023-01-29T12:50:02.581Z,3157.289
2023-01-29T12:55:02.001Z,3139.929
2023-01-29T13:00:02.070Z,1463.4
2023-01-29T13:05:02.059Z,582.4350000000001
2023-01-29T13:10:02.257Z,438.444
2023-01-29T13:15:02.210Z,667.782
2023-01-29T13:20:02.496Z,414.095
2023-01-29T13:25:05.315Z,596.743
2023-01-29T13:30:02.184Z,356.45300000000003
2023-01-29T13:35:02.265Z,381.377
2023-01-29T13:40:02.154Z,557.066
2023-01-29T13:45:02.267Z,491.47700000000003
2023-01-29T13:50:02.211Z,2609.027
2023-01-29T13:55:02.298Z,2513.135
2023-01-29T14:00:02.234Z,2262.717
2023-01-29T14:05:02.041Z,2512.597
2023-01-29T14:10:02.023Z,2716.876
2023-01-29T14:15:02.105Z,2005.085
2023-01-29T14:20:02.759Z,571.409
2023-01-29T14:25:02.024Z,232.828
2023-01-29T14:30:02.178Z,303.671
2023-01-29T14:35:02.176Z,294.547
2023-01-29T14:40:02.077Z,266.902
2023-01-29T14:45:02.056Z,184.948
2023-01-29T14:50:02.072Z,274.409
2023-01-29T14:55:02.090Z,861.164
2023-01-29T15:00:02.062Z,759.38
2023-01-29T15:05:02.056Z,751.371
2023-01-29T15:10:20.843Z,2277.023
2023-01-29T15:15:02.117Z,3004.699
2023-01-29T15:20:02.937Z,3031.348
2023-01-29T15:25:02.143Z,3086.507
2023-01-29T15:30:02.177Z,3503.469
2023-01-29T15:35:02.288Z,1464.701
2023-01-29T15:40:02.262Z,902.695
2023-01-29T15:45:02.139Z,895.376
2023-01-29T15:50:02.218Z,941.946
2023-01-29T15:55:02.253Z,922.628
2023-01-29T16:00:02.146Z,1002.939
2023-01-29T16:05:02.143Z,1038.262
2023-01-29T16:10:02.176Z,1003.672
2023-01-29T16:15:02.164Z,973.98
2023-01-29T16:20:02.856Z,2401.888
2023-01-29T16:25:02.139Z,2278.685
2023-01-29T16:30:02.218Z,2109.218
2023-01-29T16:35:02.184Z,2174.828
2023-01-29T16:40:02.274Z,203.665
2023-01-29T16:45:02.212Z,203.04500000000002
2023-01-29T16:50:02.242Z,309.351
2023-01-29T16:55:02.271Z,316.085
2023-01-29T17:00:02.166Z,294.458
2023-01-29T17:05:02.196Z,201.169
2023-01-29T17:10:02.179Z,197.262
2023-01-29T17:15:02.172Z,218.822
2023-01-29T17:20:02.889Z,1059.357
2023-01-29T17:25:02.224Z,2579.207
2023-01-29T17:30:02.237Z,2305.237
2023-01-29T17:35:02.301Z,2436.687
2023-01-29T17:40:04.308Z,2703.377
2023-01-29T17:45:02.300Z,2318.1
2023-01-29T17:50:02.281Z,234.094
2023-01-29T17:55:02.216Z,193.316
2023-01-29T18:00:02.253Z,205.197
2023-01-29T18:05:02.339Z,215.042
2023-01-29T18:10:02.246Z,316.048
2023-01-29T18:15:02.203Z,453.834
2023-01-29T18:20:03.029Z,456.213
2023-01-29T18:25:02.293Z,522.972
2023-01-29T18:30:02.230Z,533.221
2023-01-29T18:35:02.245Z,1507.438
2023-01-29T18:40:02.277Z,2655.021
2023-01-29T18:45:02.320Z,2759.285
2023-01-29T18:50:02.289Z,2444.88
2023-01-29T18:55:02.348Z,2464.225
2023-01-29T19:00:02.539Z,2326.899
2023-01-29T19:05:02.268Z,3117.483
2023-01-29T19:10:02.284Z,505.14
2023-01-29T19:15:02.294Z,783.717
2023-01-29T19:20:03.164Z,1834.656
2023-01-29T19:25:02.271Z,345.017
2023-01-29T19:30:02.314Z,257.847
2023-01-29T19:35:02.296Z,355.29
2023-01-29T19:40:02.316Z,381.778
2023-01-29T19:45:02.305Z,402.884
2023-01-29T19:50:02.349Z,394.891
2023-01-29T19:55:02.383Z,556.556
2023-01-29T20:00:02.403Z,2586.565
2023-01-29T20:05:02.333Z,2560.917
2023-01-29T20:10:02.302Z,2489.59
2023-01-29T20:15:02.310Z,2593.859
2023-01-29T20:20:02.770Z,2776.089
2023-01-29T20:25:02.355Z,336.008
2023-01-29T20:30:02.341Z,336.076
2023-01-29T20:35:02.336Z,342.809
2023-01-29T20:40:02.363Z,419.504
2023-01-29T20:45:02.389Z,737.836
2023-01-29T20:50:02.414Z,474.541
2023-01-29T20:55:02.397Z,421.817
2023-01-29T21:00:02.391Z,348.14
2023-01-29T21:05:02.386Z,335.033
2023-01-29T21:10:02.396Z,294.086
2023-01-29T21:15:02.383Z,1798.814
2023-01-29T21:20:03.351Z,2444.375
2023-01-29T21:25:02.379Z,2389.605
2023-01-29T21:30:02.436Z,2512.926
2023-01-29T21:35:02.460Z,2375.1710000000003
2023-01-29T21:40:02.414Z,2856.553
2023-01-29T21:45:02.388Z,947
2023-01-29T21:50:02.438Z,223.467
2023-01-29T21:55:02.462Z,241.403
2023-01-29T22:00:02.502Z,238.39000000000001
2023-01-29T22:05:16.279Z,212.707
2023-01-29T22:10:02.438Z,209.877
2023-01-29T22:15:02.448Z,303.70300000000003
2023-01-29T22:20:03.208Z,325.373
2023-01-29T22:25:02.472Z,320.664
2023-01-29T22:30:02.453Z,426.871
2023-01-29T22:35:02.524Z,2261.909
2023-01-29T22:40:02.470Z,1599.419
2023-01-29T22:45:02.451Z,242.149
2023-01-29T22:50:02.511Z,569.701
2023-01-29T22:55:02.533Z,2326.817
2023-01-29T23:00:02.766Z,2380.6710000000003
2023-01-29T23:05:02.462Z,382.32800000000003
2023-01-29T23:10:02.525Z,292.047
2023-01-29T23:15:02.558Z,248.87
2023-01-29T23:20:02.921Z,173.717
2023-01-29T23:25:02.590Z,173.237
2023-01-29T23:30:02.496Z,173.177
2023-01-29T23:35:02.526Z,173.082
2023-01-29T23:40:02.608Z,172.939
2023-01-29T23:45:02.489Z,427.733
2023-01-29T23:50:02.515Z,2385.022
2023-01-29T23:55:02.565Z,2380.747
